sensor_id;sensor_type;location;lat;lon;timestamp;pressure;altitude;pressure_sealevel;temperature;humidity
1926;BME280;964;42.606;23.588;2023-07-31T00:01:54;94200.13;;;39.74;30.91
1926;BME280;964;42.606;23.588;2023-07-31T00:04:21;94205.66;;;39.38;30.75
1926;BME280;964;42.606;23.588;2023-07-31T00:06:47;94202.72;;;39.43;31.42
1926;BME280;964;42.606;23.588;2023-07-31T00:09:14;94207.16;;;39.75;30.41
1926;BME280;964;42.606;23.588;2023-07-31T00:11:41;94201.47;;;39.88;30.41
1926;BME280;964;42.606;23.588;2023-07-31T00:14:07;94205.72;;;39.89;31.02
1926;BME280;964;42.606;23.588;2023-07-31T00:16:35;94197.22;;;39.94;31.10
1926;BME280;964;42.606;23.588;2023-07-31T00:19:02;94191.69;;;40.02;30.83
1926;BME280;964;42.606;23.588;2023-07-31T00:21:28;94201.31;;;40.01;30.70
1926;BME280;964;42.606;23.588;2023-07-31T00:23:55;94204.38;;;40.26;30.76
1926;BME280;964;42.606;23.588;2023-07-31T00:26:22;94205.59;;;39.66;31.05
1926;BME280;964;42.606;23.588;2023-07-31T00:28:48;94204.78;;;39.86;31.04
1926;BME280;964;42.606;23.588;2023-07-31T00:31:15;94207.09;;;39.67;31.08
1926;BME280;964;42.606;23.588;2023-07-31T00:33:43;94196.25;;;39.41;31.05
1926;BME280;964;42.606;23.588;2023-07-31T00:36:09;94203.59;;;39.31;31.36
1926;BME280;964;42.606;23.588;2023-07-31T00:38:36;94190.31;;;39.37;31.19
1926;BME280;964;42.606;23.588;2023-07-31T00:41:03;94196.94;;;39.34;30.80
1926;BME280;964;42.606;23.588;2023-07-31T00:43:29;94191.84;;;39.24;31.54
1926;BME280;964;42.606;23.588;2023-07-31T00:45:56;94191.91;;;39.68;31.22
1926;BME280;964;42.606;23.588;2023-07-31T00:48:23;94182.06;;;39.23;31.75
1926;BME280;964;42.606;23.588;2023-07-31T00:50:51;94162.72;;;38.82;31.67
1926;BME280;964;42.606;23.588;2023-07-31T00:53:18;94165.44;;;38.12;32.98
1926;BME280;964;42.606;23.588;2023-07-31T00:55:45;94152.81;;;38.24;33.20
1926;BME280;964;42.606;23.588;2023-07-31T00:58:11;94145.19;;;38.80;32.14
1926;BME280;964;42.606;23.588;2023-07-31T01:00:38;94141.72;;;38.66;32.44
1926;BME280;964;42.606;23.588;2023-07-31T01:03:04;94141.94;;;38.89;32.01
1926;BME280;964;42.606;23.588;2023-07-31T01:05:42;94140.28;;;39.21;32.09
1926;BME280;964;42.606;23.588;2023-07-31T01:08:15;94143.53;;;39.77;31.57
1926;BME280;964;42.606;23.588;2023-07-31T01:10:54;94151.88;;;39.41;32.27
1926;BME280;964;42.606;23.588;2023-07-31T01:13:22;94146.19;;;40.05;31.67
1926;BME280;964;42.606;23.588;2023-07-31T01:15:49;94136.03;;;40.15;31.29
1926;BME280;964;42.606;23.588;2023-07-31T01:18:16;94145.75;;;39.78;31.93
1926;BME280;964;42.606;23.588;2023-07-31T01:20:50;94148.16;;;39.46;31.62
1926;BME280;964;42.606;23.588;2023-07-31T01:23:36;94139.31;;;39.47;31.95
1926;BME280;964;42.606;23.588;2023-07-31T01:26:11;94137.44;;;39.42;31.53
1926;BME280;964;42.606;23.588;2023-07-31T01:28:46;94133.19;;;39.05;31.89
1926;BME280;964;42.606;23.588;2023-07-31T01:31:18;94131.78;;;39.19;31.95
1926;BME280;964;42.606;23.588;2023-07-31T01:33:46;94121.53;;;39.43;32.00
1926;BME280;964;42.606;23.588;2023-07-31T01:36:14;94121.56;;;39.50;31.80
1926;BME280;964;42.606;23.588;2023-07-31T01:38:41;94113.56;;;39.90;31.48
1926;BME280;964;42.606;23.588;2023-07-31T01:41:09;94119.56;;;39.58;31.28
1926;BME280;964;42.606;23.588;2023-07-31T01:43:36;94123.16;;;39.74;31.23
1926;BME280;964;42.606;23.588;2023-07-31T01:46:03;94116.81;;;39.66;31.46
1926;BME280;964;42.606;23.588;2023-07-31T01:48:29;94116.13;;;39.73;30.77
1926;BME280;964;42.606;23.588;2023-07-31T01:51:01;94120.41;;;39.31;30.95
1926;BME280;964;42.606;23.588;2023-07-31T01:53:27;94102.47;;;39.90;30.15
1926;BME280;964;42.606;23.588;2023-07-31T01:55:54;94112.25;;;39.33;30.59
1926;BME280;964;42.606;23.588;2023-07-31T01:58:22;94120.81;;;39.50;30.17
1926;BME280;964;42.606;23.588;2023-07-31T02:00:49;94125.56;;;39.27;30.78
1926;BME280;964;42.606;23.588;2023-07-31T02:03:15;94127.97;;;38.53;31.71
1926;BME280;964;42.606;23.588;2023-07-31T02:05:44;94133.63;;;39.24;30.86
1926;BME280;964;42.606;23.588;2023-07-31T02:08:11;94136.16;;;39.43;30.73
1926;BME280;964;42.606;23.588;2023-07-31T02:10:37;94132.94;;;39.32;30.74
1926;BME280;964;42.606;23.588;2023-07-31T02:13:04;94142.81;;;38.63;31.90
1926;BME280;964;42.606;23.588;2023-07-31T02:15:33;94137.28;;;39.12;31.30
1926;BME280;964;42.606;23.588;2023-07-31T02:18:00;94143.78;;;39.58;30.88
1926;BME280;964;42.606;23.588;2023-07-31T02:20:26;94144.72;;;39.53;31.02
1926;BME280;964;42.606;23.588;2023-07-31T02:22:53;94152.38;;;39.03;31.73
1926;BME280;964;42.606;23.588;2023-07-31T02:25:19;94146.63;;;39.30;31.12
1926;BME280;964;42.606;23.588;2023-07-31T02:27:46;94159.41;;;39.04;31.64
1926;BME280;964;42.606;23.588;2023-07-31T02:30:13;94157.16;;;39.03;31.68
1926;BME280;964;42.606;23.588;2023-07-31T02:32:41;94157.31;;;38.97;32.00
1926;BME280;964;42.606;23.588;2023-07-31T02:35:08;94164.44;;;38.85;32.09
1926;BME280;964;42.606;23.588;2023-07-31T02:37:34;94160.72;;;38.62;32.49
1926;BME280;964;42.606;23.588;2023-07-31T02:40:01;94171.50;;;38.11;32.67
1926;BME280;964;42.606;23.588;2023-07-31T02:42:27;94170.25;;;38.74;32.54
1926;BME280;964;42.606;23.588;2023-07-31T02:44:54;94164.94;;;39.04;31.89
1926;BME280;964;42.606;23.588;2023-07-31T02:47:21;94165.34;;;39.37;31.75
1926;BME280;964;42.606;23.588;2023-07-31T02:49:49;94164.75;;;39.31;31.44
1926;BME280;964;42.606;23.588;2023-07-31T02:52:16;94160.38;;;39.86;30.80
1926;BME280;964;42.606;23.588;2023-07-31T02:54:43;94165.03;;;39.91;30.91
1926;BME280;964;42.606;23.588;2023-07-31T02:57:09;94160.94;;;39.85;30.98
1926;BME280;964;42.606;23.588;2023-07-31T02:59:36;94149.34;;;40.09;30.10
1926;BME280;964;42.606;23.588;2023-07-31T03:02:03;94166.50;;;39.20;31.79
1926;BME280;964;42.606;23.588;2023-07-31T03:04:30;94161.47;;;39.40;31.26
1926;BME280;964;42.606;23.588;2023-07-31T03:06:58;94165.09;;;38.78;32.07
1926;BME280;964;42.606;23.588;2023-07-31T03:09:24;94165.19;;;38.65;32.28
1926;BME280;964;42.606;23.588;2023-07-31T03:11:51;94162.84;;;39.26;31.67
1926;BME280;964;42.606;23.588;2023-07-31T03:14:18;94166.03;;;39.01;32.02
1926;BME280;964;42.606;23.588;2023-07-31T03:16:44;94156.06;;;39.06;31.94
1926;BME280;964;42.606;23.588;2023-07-31T03:19:11;94161.59;;;38.98;32.12
1926;BME280;964;42.606;23.588;2023-07-31T03:21:37;94163.44;;;39.03;31.99
1926;BME280;964;42.606;23.588;2023-07-31T03:24:05;94165.03;;;39.19;31.85
1926;BME280;964;42.606;23.588;2023-07-31T03:26:32;94168.41;;;39.26;31.86
1926;BME280;964;42.606;23.588;2023-07-31T03:28:59;94171.97;;;39.05;31.86
1926;BME280;964;42.606;23.588;2023-07-31T03:31:25;94171.13;;;39.18;31.96
1926;BME280;964;42.606;23.588;2023-07-31T03:33:52;94168.50;;;38.84;32.44
1926;BME280;964;42.606;23.588;2023-07-31T03:36:19;94177.69;;;38.58;32.65
1926;BME280;964;42.606;23.588;2023-07-31T03:38:46;94172.25;;;38.11;33.52
1926;BME280;964;42.606;23.588;2023-07-31T03:41:14;94172.66;;;38.15;33.02
1926;BME280;964;42.606;23.588;2023-07-31T03:43:40;94181.44;;;38.06;33.39
1926;BME280;964;42.606;23.588;2023-07-31T03:46:07;94177.25;;;38.47;32.87
1926;BME280;964;42.606;23.588;2023-07-31T03:48:34;94181.28;;;38.46;32.86
1926;BME280;964;42.606;23.588;2023-07-31T03:51:00;94187.13;;;38.21;33.39
1926;BME280;964;42.606;23.588;2023-07-31T03:53:27;94180.09;;;38.62;32.94
1926;BME280;964;42.606;23.588;2023-07-31T03:55:54;94184.72;;;38.80;33.06
1926;BME280;964;42.606;23.588;2023-07-31T03:58:22;94186.66;;;39.21;32.08
1926;BME280;964;42.606;23.588;2023-07-31T04:00:48;94185.72;;;38.69;32.77
1926;BME280;964;42.606;23.588;2023-07-31T04:03:15;94184.84;;;39.23;32.36
1926;BME280;964;42.606;23.588;2023-07-31T04:05:42;94188.84;;;39.43;31.53
1926;BME280;964;42.606;23.588;2023-07-31T04:08:08;94182.56;;;39.43;31.84
1926;BME280;964;42.606;23.588;2023-07-31T04:10:35;94188.84;;;39.79;31.62
1926;BME280;964;42.606;23.588;2023-07-31T04:13:01;94195.72;;;39.93;31.85
1926;BME280;964;42.606;23.588;2023-07-31T04:15:29;94199.09;;;39.99;31.33
1926;BME280;964;42.606;23.588;2023-07-31T04:17:56;94208.91;;;39.93;31.21
1926;BME280;964;42.606;23.588;2023-07-31T04:20:23;94199.44;;;39.88;31.30
1926;BME280;964;42.606;23.588;2023-07-31T04:22:49;94191.06;;;40.32;30.84
1926;BME280;964;42.606;23.588;2023-07-31T04:25:16;94195.75;;;40.01;31.13
1926;BME280;964;42.606;23.588;2023-07-31T04:27:42;94195.41;;;40.04;31.68
1926;BME280;964;42.606;23.588;2023-07-31T04:30:09;94193.81;;;39.73;31.82
1926;BME280;964;42.606;23.588;2023-07-31T04:32:37;94184.38;;;40.20;31.55
1926;BME280;964;42.606;23.588;2023-07-31T04:35:05;94187.47;;;40.08;31.53
1926;BME280;964;42.606;23.588;2023-07-31T04:37:31;94186.78;;;39.72;31.79
1926;BME280;964;42.606;23.588;2023-07-31T04:39:58;94193.06;;;39.37;32.30
1926;BME280;964;42.606;23.588;2023-07-31T04:42:24;94189.91;;;39.33;32.16
1926;BME280;964;42.606;23.588;2023-07-31T04:44:51;94197.06;;;39.64;32.14
1926;BME280;964;42.606;23.588;2023-07-31T04:47:18;94184.75;;;40.24;30.84
1926;BME280;964;42.606;23.588;2023-07-31T04:49:47;94186.09;;;40.53;30.63
1926;BME280;964;42.606;23.588;2023-07-31T04:52:14;94195.72;;;39.93;31.52
1926;BME280;964;42.606;23.588;2023-07-31T04:54:40;94191.09;;;39.16;32.09
1926;BME280;964;42.606;23.588;2023-07-31T04:57:07;94191.78;;;39.38;32.28
1926;BME280;964;42.606;23.588;2023-07-31T04:59:33;94196.38;;;38.24;33.33
1926;BME280;964;42.606;23.588;2023-07-31T05:02:00;94196.84;;;38.77;32.77
1926;BME280;964;42.606;23.588;2023-07-31T05:04:27;94197.19;;;38.32;33.15
1926;BME280;964;42.606;23.588;2023-07-31T05:06:55;94200.00;;;37.85;33.81
1926;BME280;964;42.606;23.588;2023-07-31T05:09:22;94208.91;;;36.99;34.79
1926;BME280;964;42.606;23.588;2023-07-31T05:11:48;94204.28;;;37.47;34.39
1926;BME280;964;42.606;23.588;2023-07-31T05:14:15;94204.91;;;37.66;33.60
1926;BME280;964;42.606;23.588;2023-07-31T05:16:42;94192.41;;;38.33;33.04
1926;BME280;964;42.606;23.588;2023-07-31T05:19:08;94199.50;;;38.41;32.89
1926;BME280;964;42.606;23.588;2023-07-31T05:21:35;94197.38;;;38.13;33.23
1926;BME280;964;42.606;23.588;2023-07-31T05:24:04;94185.53;;;38.88;32.15
1926;BME280;964;42.606;23.588;2023-07-31T05:26:31;94196.47;;;38.18;33.02
1926;BME280;964;42.606;23.588;2023-07-31T05:28:58;94185.91;;;38.30;32.53
1926;BME280;964;42.606;23.588;2023-07-31T05:31:24;94187.50;;;38.39;32.58
1926;BME280;964;42.606;23.588;2023-07-31T05:33:51;94188.09;;;37.77;33.04
1926;BME280;964;42.606;23.588;2023-07-31T05:36:17;94181.03;;;38.02;33.15
1926;BME280;964;42.606;23.588;2023-07-31T05:38:44;94183.03;;;38.02;33.08
1926;BME280;964;42.606;23.588;2023-07-31T05:41:12;94181.81;;;38.65;32.49
1926;BME280;964;42.606;23.588;2023-07-31T05:43:39;94179.00;;;38.03;32.99
1926;BME280;964;42.606;23.588;2023-07-31T05:46:06;94189.63;;;37.52;34.10
1926;BME280;964;42.606;23.588;2023-07-31T05:48:34;94188.97;;;37.32;33.93
1926;BME280;964;42.606;23.588;2023-07-31T05:51:01;94186.63;;;37.50;33.89
1926;BME280;964;42.606;23.588;2023-07-31T05:53:27;94183.88;;;37.37;34.33
1926;BME280;964;42.606;23.588;2023-07-31T05:55:54;94184.28;;;37.67;33.44
1926;BME280;964;42.606;23.588;2023-07-31T05:58:22;94193.72;;;38.18;32.78
1926;BME280;964;42.606;23.588;2023-07-31T06:00:49;94189.44;;;38.93;32.29
1926;BME280;964;42.606;23.588;2023-07-31T06:03:15;94177.38;;;38.07;32.68
1926;BME280;964;42.606;23.588;2023-07-31T06:05:42;94187.63;;;38.54;32.43
1926;BME280;964;42.606;23.588;2023-07-31T06:08:09;94187.50;;;38.25;32.14
1926;BME280;964;42.606;23.588;2023-07-31T06:10:36;94188.31;;;39.16;31.58
1926;BME280;964;42.606;23.588;2023-07-31T06:13:03;94190.25;;;39.01;31.58
1926;BME280;964;42.606;23.588;2023-07-31T06:15:30;94192.56;;;38.89;31.57
1926;BME280;964;42.606;23.588;2023-07-31T06:17:57;94194.50;;;39.66;30.39
1926;BME280;964;42.606;23.588;2023-07-31T06:20:27;94195.25;;;38.61;31.57
1926;BME280;964;42.606;23.588;2023-07-31T06:22:54;94186.84;;;39.87;30.15
1926;BME280;964;42.606;23.588;2023-07-31T06:25:20;94202.88;;;38.89;31.23
1926;BME280;964;42.606;23.588;2023-07-31T06:27:47;94194.94;;;39.13;30.90
1926;BME280;964;42.606;23.588;2023-07-31T06:30:14;94203.59;;;39.31;30.47
1926;BME280;964;42.606;23.588;2023-07-31T06:32:41;94187.66;;;38.82;31.48
1926;BME280;964;42.606;23.588;2023-07-31T06:35:08;94186.03;;;40.23;29.45
1926;BME280;964;42.606;23.588;2023-07-31T06:37:35;94193.56;;;39.99;29.09
1926;BME280;964;42.606;23.588;2023-07-31T06:40:06;94184.69;;;39.65;29.68
1926;BME280;964;42.606;23.588;2023-07-31T06:42:34;94188.56;;;39.62;29.57
1926;BME280;964;42.606;23.588;2023-07-31T06:45:00;94189.44;;;38.93;30.19
1926;BME280;964;42.606;23.588;2023-07-31T06:47:27;94191.53;;;39.56;29.53
1926;BME280;964;42.606;23.588;2023-07-31T06:49:55;94195.56;;;39.55;29.43
1926;BME280;964;42.606;23.588;2023-07-31T06:52:22;94188.28;;;39.73;28.96
1926;BME280;964;42.606;23.588;2023-07-31T06:55:01;94180.72;;;40.85;28.31
1926;BME280;964;42.606;23.588;2023-07-31T06:57:28;94186.63;;;40.29;28.16
1926;BME280;964;42.606;23.588;2023-07-31T06:59:55;94183.00;;;41.02;27.25
1926;BME280;964;42.606;23.588;2023-07-31T07:02:21;94187.47;;;40.08;27.81
1926;BME280;964;42.606;23.588;2023-07-31T07:04:49;94187.53;;;41.37;26.97
1926;BME280;964;42.606;23.588;2023-07-31T07:07:18;94189.53;;;41.67;27.25
1926;BME280;964;42.606;23.588;2023-07-31T07:09:44;94195.38;;;40.63;27.79
1926;BME280;964;42.606;23.588;2023-07-31T07:12:11;94203.53;;;39.95;28.12
1926;BME280;964;42.606;23.588;2023-07-31T07:14:38;94203.47;;;39.44;28.76
1926;BME280;964;42.606;23.588;2023-07-31T07:17:05;94203.78;;;39.33;29.24
1926;BME280;964;42.606;23.588;2023-07-31T07:19:32;94209.59;;;40.44;28.52
1926;BME280;964;42.606;23.588;2023-07-31T07:21:58;94211.06;;;40.45;28.46
1926;BME280;964;42.606;23.588;2023-07-31T07:24:28;94219.09;;;40.05;28.75
1926;BME280;964;42.606;23.588;2023-07-31T07:26:55;94198.53;;;41.28;27.06
1926;BME280;964;42.606;23.588;2023-07-31T07:29:22;94204.47;;;41.09;26.72
1926;BME280;964;42.606;23.588;2023-07-31T07:31:49;94199.25;;;40.60;27.15
1926;BME280;964;42.606;23.588;2023-07-31T07:34:15;94215.00;;;39.91;28.16
1926;BME280;964;42.606;23.588;2023-07-31T07:36:42;94215.16;;;40.37;27.46
1926;BME280;964;42.606;23.588;2023-07-31T07:39:10;94221.78;;;40.34;27.64
1926;BME280;964;42.606;23.588;2023-07-31T07:41:38;94204.81;;;41.28;26.65
1926;BME280;964;42.606;23.588;2023-07-31T07:44:04;94204.63;;;42.04;25.54
1926;BME280;964;42.606;23.588;2023-07-31T07:46:31;94204.72;;;41.66;25.55
1926;BME280;964;42.606;23.588;2023-07-31T07:48:58;94209.06;;;41.52;26.32
1926;BME280;964;42.606;23.588;2023-07-31T07:51:24;94210.22;;;41.96;24.86
1926;BME280;964;42.606;23.588;2023-07-31T07:53:51;94198.88;;;42.91;24.83
1926;BME280;964;42.606;23.588;2023-07-31T07:56:18;94201.34;;;42.63;25.19
1926;BME280;964;42.606;23.588;2023-07-31T07:58:48;94201.19;;;42.53;25.28
1926;BME280;964;42.606;23.588;2023-07-31T08:01:15;94216.97;;;42.26;25.10
1926;BME280;964;42.606;23.588;2023-07-31T08:03:42;94215.81;;;41.89;25.49
1926;BME280;964;42.606;23.588;2023-07-31T08:06:08;94202.13;;;43.05;24.60
1926;BME280;964;42.606;23.588;2023-07-31T08:08:36;94199.16;;;43.03;24.50
1926;BME280;964;42.606;23.588;2023-07-31T08:11:02;94188.44;;;42.92;24.29
1926;BME280;964;42.606;23.588;2023-07-31T08:13:29;94198.53;;;42.87;24.45
1926;BME280;964;42.606;23.588;2023-07-31T08:15:57;94208.50;;;42.01;24.59
1926;BME280;964;42.606;23.588;2023-07-31T08:18:24;94209.91;;;42.25;24.52
1926;BME280;964;42.606;23.588;2023-07-31T08:20:51;94206.06;;;42.45;24.58
1926;BME280;964;42.606;23.588;2023-07-31T08:23:17;94211.22;;;42.24;24.60
1926;BME280;964;42.606;23.588;2023-07-31T08:25:45;94210.91;;;43.19;23.71
1926;BME280;964;42.606;23.588;2023-07-31T08:28:11;94206.91;;;41.83;24.85
1926;BME280;964;42.606;23.588;2023-07-31T08:30:38;94209.19;;;42.49;23.97
1926;BME280;964;42.606;23.588;2023-07-31T08:33:06;94193.16;;;43.48;23.52
1926;BME280;964;42.606;23.588;2023-07-31T08:35:33;94203.78;;;42.83;23.81
1926;BME280;964;42.606;23.588;2023-07-31T08:38:00;94197.31;;;43.40;23.99
1926;BME280;964;42.606;23.588;2023-07-31T08:40:26;94190.25;;;44.08;22.95
1926;BME280;964;42.606;23.588;2023-07-31T08:42:54;94202.16;;;42.48;24.36
1926;BME280;964;42.606;23.588;2023-07-31T08:45:22;94202.47;;;42.20;24.46
1926;BME280;964;42.606;23.588;2023-07-31T08:47:50;94196.59;;;42.97;23.62
1926;BME280;964;42.606;23.588;2023-07-31T08:50:20;94191.69;;;44.09;22.57
1926;BME280;964;42.606;23.588;2023-07-31T08:52:48;94197.97;;;43.31;23.23
1926;BME280;964;42.606;23.588;2023-07-31T08:55:15;94186.56;;;44.32;22.52
1926;BME280;964;42.606;23.588;2023-07-31T08:57:42;94191.47;;;45.14;21.31
1926;BME280;964;42.606;23.588;2023-07-31T09:00:10;94180.34;;;45.81;21.61
1926;BME280;964;42.606;23.588;2023-07-31T09:02:38;94189.03;;;46.14;20.78
1926;BME280;964;42.606;23.588;2023-07-31T09:05:09;94187.13;;;44.04;22.23
1926;BME280;964;42.606;23.588;2023-07-31T09:07:39;94192.06;;;44.66;22.14
1926;BME280;964;42.606;23.588;2023-07-31T09:10:07;94189.03;;;44.28;22.24
1926;BME280;964;42.606;23.588;2023-07-31T09:12:34;94192.75;;;43.52;23.14
1926;BME280;964;42.606;23.588;2023-07-31T09:15:01;94181.78;;;45.44;22.14
1926;BME280;964;42.606;23.588;2023-07-31T09:17:28;94181.94;;;46.13;20.38
1926;BME280;964;42.606;23.588;2023-07-31T09:19:56;94172.22;;;46.95;19.82
1926;BME280;964;42.606;23.588;2023-07-31T09:22:31;94172.66;;;45.91;20.15
1926;BME280;964;42.606;23.588;2023-07-31T09:25:08;94177.22;;;45.48;20.30
1926;BME280;964;42.606;23.588;2023-07-31T09:27:48;94168.97;;;45.69;20.42
1926;BME280;964;42.606;23.588;2023-07-31T09:30:15;94170.91;;;45.86;20.72
1926;BME280;964;42.606;23.588;2023-07-31T09:32:42;94167.44;;;47.07;19.77
1926;BME280;964;42.606;23.588;2023-07-31T09:35:20;94174.19;;;43.81;21.92
1926;BME280;964;42.606;23.588;2023-07-31T09:37:51;94165.31;;;43.75;22.13
1926;BME280;964;42.606;23.588;2023-07-31T09:40:30;94161.31;;;44.76;21.02
1926;BME280;964;42.606;23.588;2023-07-31T09:42:57;94154.50;;;46.02;20.36
1926;BME280;964;42.606;23.588;2023-07-31T09:45:25;94154.22;;;45.98;20.06
1926;BME280;964;42.606;23.588;2023-07-31T09:47:51;94171.88;;;43.87;21.69
1926;BME280;964;42.606;23.588;2023-07-31T09:50:20;94161.19;;;45.77;21.03
1926;BME280;964;42.606;23.588;2023-07-31T09:52:47;94158.84;;;46.84;19.94
1926;BME280;964;42.606;23.588;2023-07-31T09:55:14;94156.91;;;45.57;20.30
1926;BME280;964;42.606;23.588;2023-07-31T09:57:45;94166.00;;;45.10;20.87
1926;BME280;964;42.606;23.588;2023-07-31T10:00:13;94155.59;;;45.39;20.71
1926;BME280;964;42.606;23.588;2023-07-31T10:02:40;94150.78;;;46.68;20.15
1926;BME280;964;42.606;23.588;2023-07-31T10:05:08;94150.72;;;45.68;21.18
1926;BME280;964;42.606;23.588;2023-07-31T10:07:37;94146.91;;;46.73;19.62
1926;BME280;964;42.606;23.588;2023-07-31T10:10:07;94159.22;;;46.09;19.89
1926;BME280;964;42.606;23.588;2023-07-31T10:12:35;94159.25;;;45.90;20.63
1926;BME280;964;42.606;23.588;2023-07-31T10:15:05;94142.59;;;46.51;19.79
1926;BME280;964;42.606;23.588;2023-07-31T10:17:34;94153.91;;;46.94;19.36
1926;BME280;964;42.606;23.588;2023-07-31T10:20:02;94143.75;;;48.18;18.65
1926;BME280;964;42.606;23.588;2023-07-31T10:22:30;94143.94;;;49.13;18.24
1926;BME280;964;42.606;23.588;2023-07-31T10:24:58;94142.78;;;48.02;19.11
1926;BME280;964;42.606;23.588;2023-07-31T10:27:25;94137.81;;;48.47;18.72
1926;BME280;964;42.606;23.588;2023-07-31T10:29:55;94145.38;;;46.92;19.73
1926;BME280;964;42.606;23.588;2023-07-31T10:32:24;94145.31;;;46.30;20.05
1926;BME280;964;42.606;23.588;2023-07-31T10:34:51;94147.84;;;46.16;19.58
1926;BME280;964;42.606;23.588;2023-07-31T10:37:23;94154.72;;;44.90;21.44
1926;BME280;964;42.606;23.588;2023-07-31T10:39:57;94155.69;;;45.22;20.60
1926;BME280;964;42.606;23.588;2023-07-31T10:42:28;94138.44;;;47.14;18.98
1926;BME280;964;42.606;23.588;2023-07-31T10:44:57;94129.16;;;48.54;18.62
1926;BME280;964;42.606;23.588;2023-07-31T10:47:26;94132.53;;;47.10;19.64
1926;BME280;964;42.606;23.588;2023-07-31T10:49:52;94128.19;;;48.85;18.28
1926;BME280;964;42.606;23.588;2023-07-31T10:52:20;94131.56;;;46.74;19.53
1926;BME280;964;42.606;23.588;2023-07-31T10:54:49;94141.50;;;45.01;21.11
1926;BME280;964;42.606;23.588;2023-07-31T10:57:20;94130.97;;;46.36;19.54
1926;BME280;964;42.606;23.588;2023-07-31T10:59:47;94128.34;;;46.28;19.64
1926;BME280;964;42.606;23.588;2023-07-31T11:02:25;94120.91;;;47.04;20.18
1926;BME280;964;42.606;23.588;2023-07-31T11:05:08;94110.63;;;49.21;18.41
1926;BME280;964;42.606;23.588;2023-07-31T11:07:48;94102.56;;;49.52;17.37
1926;BME280;964;42.606;23.588;2023-07-31T11:10:16;94100.47;;;49.16;17.54
1926;BME280;964;42.606;23.588;2023-07-31T11:12:45;94105.63;;;48.15;18.23
1926;BME280;964;42.606;23.588;2023-07-31T11:15:12;94115.59;;;46.77;19.40
1926;BME280;964;42.606;23.588;2023-07-31T11:17:40;94121.97;;;46.37;19.76
1926;BME280;964;42.606;23.588;2023-07-31T11:20:08;94113.31;;;45.35;20.20
1926;BME280;964;42.606;23.588;2023-07-31T11:22:35;94109.53;;;46.81;19.60
1926;BME280;964;42.606;23.588;2023-07-31T11:25:02;94105.00;;;47.18;18.61
1926;BME280;964;42.606;23.588;2023-07-31T11:27:29;94113.09;;;47.78;18.75
1926;BME280;964;42.606;23.588;2023-07-31T11:30:00;94109.84;;;48.37;18.30
1926;BME280;964;42.606;23.588;2023-07-31T11:32:27;94107.88;;;47.84;18.38
1926;BME280;964;42.606;23.588;2023-07-31T11:34:55;94096.84;;;48.79;17.57
1926;BME280;964;42.606;23.588;2023-07-31T11:37:22;94099.31;;;48.49;17.72
1926;BME280;964;42.606;23.588;2023-07-31T11:39:59;94096.66;;;47.95;18.02
1926;BME280;964;42.606;23.588;2023-07-31T11:42:25;94099.69;;;47.88;18.39
1926;BME280;964;42.606;23.588;2023-07-31T11:44:53;94100.91;;;47.52;18.38
1926;BME280;964;42.606;23.588;2023-07-31T11:47:19;94103.69;;;46.67;18.98
1926;BME280;964;42.606;23.588;2023-07-31T11:49:46;94100.25;;;47.42;18.43
1926;BME280;964;42.606;23.588;2023-07-31T11:52:15;94102.41;;;46.58;18.79
1926;BME280;964;42.606;23.588;2023-07-31T11:54:45;94099.81;;;47.24;18.07
1926;BME280;964;42.606;23.588;2023-07-31T11:57:12;94094.53;;;47.72;18.28
1926;BME280;964;42.606;23.588;2023-07-31T11:59:39;94099.78;;;48.23;17.74
1926;BME280;964;42.606;23.588;2023-07-31T12:02:06;94091.72;;;47.51;17.98
1926;BME280;964;42.606;23.588;2023-07-31T12:04:33;94084.75;;;48.64;17.70
1926;BME280;964;42.606;23.588;2023-07-31T12:07:00;94088.00;;;47.58;18.34
1926;BME280;964;42.606;23.588;2023-07-31T12:09:28;94082.56;;;47.72;17.93
1926;BME280;964;42.606;23.588;2023-07-31T12:11:55;94090.34;;;46.77;18.69
1926;BME280;964;42.606;23.588;2023-07-31T12:14:24;94079.00;;;48.16;17.39
1926;BME280;964;42.606;23.588;2023-07-31T12:16:54;94082.50;;;46.54;18.56
1926;BME280;964;42.606;23.588;2023-07-31T12:19:21;94073.28;;;47.81;18.18
1926;BME280;964;42.606;23.588;2023-07-31T12:21:48;94055.69;;;49.45;16.85
1926;BME280;964;42.606;23.588;2023-07-31T12:24:18;94057.81;;;48.85;17.18
1926;BME280;964;42.606;23.588;2023-07-31T12:26:47;94065.91;;;48.20;17.75
1926;BME280;964;42.606;23.588;2023-07-31T12:29:14;94052.84;;;48.48;17.31
1926;BME280;964;42.606;23.588;2023-07-31T12:31:41;94051.13;;;48.20;17.39
1926;BME280;964;42.606;23.588;2023-07-31T12:34:15;94051.94;;;49.04;17.11
1926;BME280;964;42.606;23.588;2023-07-31T12:36:43;94038.75;;;49.20;17.41
1926;BME280;964;42.606;23.588;2023-07-31T12:39:10;94052.06;;;48.83;17.56
1926;BME280;964;42.606;23.588;2023-07-31T12:41:36;94044.69;;;49.01;17.11
1926;BME280;964;42.606;23.588;2023-07-31T12:44:04;94048.06;;;48.16;17.62
1926;BME280;964;42.606;23.588;2023-07-31T12:46:31;94050.84;;;47.93;17.86
1926;BME280;964;42.606;23.588;2023-07-31T12:48:58;94052.41;;;47.51;17.63
1926;BME280;964;42.606;23.588;2023-07-31T12:51:25;94051.91;;;47.43;17.56
1926;BME280;964;42.606;23.588;2023-07-31T12:53:51;94047.19;;;48.25;17.46
1926;BME280;964;42.606;23.588;2023-07-31T12:56:18;94038.56;;;47.77;17.83
1926;BME280;964;42.606;23.588;2023-07-31T12:58:44;94035.09;;;47.99;17.46
1926;BME280;964;42.606;23.588;2023-07-31T13:01:13;94043.69;;;47.03;18.20
1926;BME280;964;42.606;23.588;2023-07-31T13:03:39;94034.84;;;46.54;19.41
1926;BME280;964;42.606;23.588;2023-07-31T13:06:06;94039.69;;;46.85;18.85
1926;BME280;964;42.606;23.588;2023-07-31T13:08:33;94043.06;;;45.91;19.42
1926;BME280;964;42.606;23.588;2023-07-31T13:10:59;94038.88;;;46.11;19.22
1926;BME280;964;42.606;23.588;2023-07-31T13:13:26;94042.78;;;45.87;19.22
1926;BME280;964;42.606;23.588;2023-07-31T13:15:52;94042.88;;;46.91;18.78
1926;BME280;964;42.606;23.588;2023-07-31T13:18:20;94025.50;;;47.69;18.14
1926;BME280;964;42.606;23.588;2023-07-31T13:20:47;94034.97;;;46.77;19.02
1926;BME280;964;42.606;23.588;2023-07-31T13:23:14;94044.03;;;46.14;18.97
1926;BME280;964;42.606;23.588;2023-07-31T13:25:41;94032.38;;;46.39;19.57